Aérodrome :
LOGIN :

S'inscrire | Disclaimer

   EN    FR    IT 

 










Légende :    VFR   VFR Marginal   IFR   IFR Intensif   IFR Très Intensif
Visi : 
Plafond : 
>= 8 km
>= 3000ft
5 à 8 km
1000 à 3000 ft
1500m à 5 km
500 à 1000 ft
800 à 1500m
200 à 500 ft
< 800m
< 200 ft
Symboles :   Orages  Brouillard  Fortes neiges  Fortes précipitations  Vent > 20 kt
SIGMETs :   Divers  Orages  Givrage  Turbulence  Onde Orograph.  Cendres Volcan.







- Altitude de l'aérodrome : 115 ft
- Code IATA : HER


LGIR - Nikos Kazantzakis

DERNIER METAR :
  • 150620Z 16007KT 9999 SCT020 BKN080 16/12 Q1017 NOSIG

METARs EXPIRÉS :
  • 150550Z 14009KT 9999 SCT020 BKN080 16/13 Q1017 NOSIG
  • 150520Z 16010KT 9999 SCT020 BKN080 16/12 Q1017 NOSIG
  • 150450Z 16007KT 9999 SCT020 BKN080 16/12 Q1017 NOSIG
  • 150420Z 17008KT 9999 SCT020 BKN080 17/12 Q1017 NOSIG
  • 150350Z 16012KT 9999 SCT020 SCT080 17/12 Q1017 NOSIG
  • 150320Z 17013KT 9999 SCT020 16/13 Q1017 NOSIG

TAF TAF LGIR
Valide du 15 à 06h jusqu'au 16 à 06h UTC


150500Z 1506/1606 17015KT 9999 FEW020
TEMPO 1509/1514 SCT020 BKN070
PROB40
TEMPO 1518/1606 5000 RA FEW010 BKN020 BKN070
PROB30
TEMPO 1600/1606 3000 TSRA FEW010 SCT015CB BKN020 BKN070
Pas de NOTAMs connus pour ce terrain.
1 SIGMET publié pour la FIR Athinai (LGGG) :
 
Orages noyés dans la masse
LGGG SIGMET 2 VALID 150259/150659 LGAT
LGGG ATHINAI FIR/UIR EMBD TS OBS N OF N3700 AND W OF E02130 STNR NC=



MET'MAP, la Météo Aéronautique d'un coup d'oeil ! - Copyright ORBIFLY Décembre 2007 - Disclaimer

ORBIFLY MET'MAP TEAM :

Programmation & Développement : Alexandra Zaïnal
Conception & Développement : Baudouin d'Aumeries
Co-Programmation & Développement : Marc-Olivier Méhu
Soutien technique & logistique : Manuel Goepfert

Contact : metmap@orbifly.com




SOURCES & CREDITS :

   NOAA